createdAt,value
2018-06-21T00:00:52.766Z,12.60
2018-06-21T00:03:21.281Z,15.47
2018-06-21T00:05:49.789Z,12.93
2018-06-21T00:08:18.499Z,11.50
2018-06-21T00:10:47.133Z,10.37
2018-06-21T00:13:15.613Z,10.13
2018-06-21T00:15:44.363Z,14.57
2018-06-21T00:18:12.837Z,13.07
2018-06-21T00:20:41.005Z,10.37
2018-06-21T00:23:09.461Z,11.17
2018-06-21T00:25:38.023Z,10.57
2018-06-21T00:28:06.626Z,11.97
2018-06-21T00:30:35.065Z,11.03
2018-06-21T00:33:03.547Z,10.20
2018-06-21T00:35:32.755Z,9.73
2018-06-21T00:38:01.547Z,13.00
2018-06-21T00:40:30.347Z,10.83
2018-06-21T00:42:58.854Z,13.47
2018-06-21T00:45:27.463Z,15.20
2018-06-21T00:47:56.291Z,9.90
2018-06-21T00:50:25.095Z,10.87
2018-06-21T00:52:53.551Z,11.07
2018-06-21T00:55:33.333Z,11.93
2018-06-21T00:58:01.856Z,10.57
2018-06-21T01:00:30.335Z,13.77
2018-06-21T01:02:59.487Z,12.57
2018-06-21T01:05:27.961Z,11.07
2018-06-21T01:07:56.476Z,14.50
2018-06-21T01:10:25.270Z,12.77
2018-06-21T01:12:53.579Z,11.83
2018-06-21T01:15:22.114Z,14.10
2018-06-21T01:17:50.633Z,11.03
2018-06-21T01:20:19.747Z,15.27
2018-06-21T01:22:48.733Z,11.53
2018-06-21T01:25:17.583Z,14.73
2018-06-21T01:27:46.010Z,13.00
2018-06-21T01:30:14.887Z,12.73
2018-06-21T01:32:44.088Z,13.03
2018-06-21T01:35:12.885Z,14.00
2018-06-21T01:37:41.697Z,12.23
2018-06-21T01:40:10.199Z,13.17
2018-06-21T01:42:38.982Z,15.83
2018-06-21T01:45:07.411Z,12.27
2018-06-21T01:47:37.065Z,13.60
2018-06-21T01:50:05.987Z,14.63
2018-06-21T01:52:34.531Z,13.57
2018-06-21T01:55:02.956Z,13.73
2018-06-21T01:57:31.445Z,15.63
2018-06-21T02:00:00.209Z,15.73
2018-06-21T02:02:28.911Z,18.43
2018-06-21T02:04:57.343Z,13.20
2018-06-21T02:07:26.009Z,15.83
2018-06-21T02:09:54.761Z,17.30
2018-06-21T02:12:24.107Z,21.10
2018-06-21T02:14:52.589Z,15.30
2018-06-21T02:17:21.095Z,15.63
2018-06-21T02:19:49.533Z,14.50
2018-06-21T02:22:18.325Z,15.73
2018-06-21T02:24:46.756Z,15.00
2018-06-21T02:27:15.231Z,14.83
2018-06-21T02:29:43.682Z,13.27
2018-06-21T02:32:12.141Z,13.03
2018-06-21T02:34:40.580Z,14.63
2018-06-21T02:37:09.081Z,14.13
2018-06-21T02:39:37.835Z,14.47
2018-06-21T02:42:06.756Z,15.20
2018-06-21T02:44:35.158Z,14.50
2018-06-21T02:47:03.716Z,16.40
2018-06-21T02:49:32.559Z,17.27
2018-06-21T02:52:01.003Z,13.20
2018-06-21T02:54:29.564Z,13.80
2018-06-21T02:56:58.345Z,10.97
2018-06-21T02:59:27.539Z,10.97
2018-06-21T03:01:56.419Z,12.37
2018-06-21T03:04:25.268Z,11.97
2018-06-21T03:06:53.746Z,10.60
2018-06-21T03:09:22.169Z,10.23
2018-06-21T03:11:50.685Z,11.30
2018-06-21T03:14:19.150Z,10.37
2018-06-21T03:16:47.955Z,11.20
2018-06-21T03:19:16.739Z,11.13
2018-06-21T03:21:45.261Z,10.20
2018-06-21T03:24:14.058Z,11.50
2018-06-21T03:26:42.577Z,11.80
2018-06-21T03:29:11.054Z,11.33
2018-06-21T03:31:39.547Z,12.10
2018-06-21T03:34:08.066Z,10.23
2018-06-21T03:36:36.534Z,12.03
2018-06-21T03:39:06.173Z,14.27
2018-06-21T03:41:34.789Z,11.27
2018-06-21T03:44:03.377Z,12.27
2018-06-21T03:46:32.263Z,15.00
2018-06-21T03:49:02.037Z,14.90
2018-06-21T03:51:30.563Z,16.83
2018-06-21T03:53:59.101Z,15.67
2018-06-21T03:56:27.551Z,12.20
2018-06-21T03:58:56.337Z,10.37
2018-06-21T04:01:25.056Z,11.90
2018-06-21T04:03:53.808Z,11.07
2018-06-21T04:06:22.355Z,11.97
2018-06-21T04:08:50.849Z,12.40
2018-06-21T04:11:19.569Z,6.77
2018-06-21T04:13:48.369Z,10.70
2018-06-21T04:16:16.823Z,6.10
2018-06-21T04:18:45.615Z,4.53
2018-06-21T04:21:14.022Z,4.47
2018-06-21T04:23:42.476Z,4.53
2018-06-21T04:26:11.382Z,3.93
2018-06-21T04:28:40.255Z,3.53
2018-06-21T04:31:09.355Z,3.13
2018-06-21T04:33:38.507Z,1.83
2018-06-21T04:36:07.347Z,4.10
2018-06-21T04:38:35.842Z,2.43
2018-06-21T04:41:04.305Z,2.93
2018-06-21T04:43:32.800Z,3.63
2018-06-21T04:46:01.252Z,4.33
2018-06-21T04:48:29.786Z,2.43
2018-06-21T04:50:58.593Z,2.17
2018-06-21T04:53:27.320Z,3.63
2018-06-21T04:55:56.285Z,3.47
2018-06-21T04:58:25.167Z,2.37
2018-06-21T05:00:53.921Z,2.47
2018-06-21T05:03:22.832Z,3.83
2018-06-21T05:05:51.229Z,2.73
2018-06-21T05:08:20.021Z,3.07
2018-06-21T05:10:48.480Z,2.33
2018-06-21T05:13:17.209Z,4.73
2018-06-21T05:15:45.673Z,5.63
2018-06-21T05:18:14.461Z,3.60
2018-06-21T05:20:42.933Z,4.87
2018-06-21T05:23:11.401Z,6.37
2018-06-21T05:25:40.245Z,2.67
2018-06-21T05:28:08.681Z,2.40
2018-06-21T05:30:37.397Z,5.87
2018-06-21T05:33:05.870Z,4.63
2018-06-21T05:35:34.573Z,7.07
2018-06-21T05:38:03.058Z,5.10
2018-06-21T05:40:34.647Z,4.73
2018-06-21T05:43:03.717Z,2.87
2018-06-21T05:45:32.473Z,6.00
2018-06-21T05:48:02.261Z,6.13
2018-06-21T05:50:32.168Z,3.80
2018-06-21T05:53:01.205Z,5.27
2018-06-21T05:55:30.662Z,6.80
2018-06-21T05:57:59.331Z,7.90
2018-06-21T06:00:27.737Z,10.67
2018-06-21T06:02:56.321Z,7.87
2018-06-21T06:05:25.110Z,5.90
2018-06-21T06:07:53.599Z,5.20
2018-06-21T06:10:22.509Z,10.37
2018-06-21T06:12:51.337Z,8.17
2018-06-21T06:15:19.855Z,8.90
2018-06-21T06:17:48.285Z,9.30
2018-06-21T06:20:16.741Z,5.00
2018-06-21T06:22:45.531Z,7.03
2018-06-21T06:25:13.970Z,7.83
2018-06-21T06:27:42.820Z,7.23
2018-06-21T06:30:11.259Z,5.80
2018-06-21T06:32:40.169Z,6.63
2018-06-21T06:35:08.957Z,5.03
2018-06-21T06:37:37.553Z,5.63
2018-06-21T06:40:06.476Z,8.73
2018-06-21T06:42:34.915Z,6.33
2018-06-21T06:45:04.216Z,7.47
2018-06-21T06:47:32.957Z,7.30
2018-06-21T06:50:01.746Z,7.40
2018-06-21T06:52:30.841Z,4.17
2018-06-21T06:54:59.663Z,5.30
2018-06-21T06:57:28.407Z,5.80
2018-06-21T06:59:57.106Z,3.67
2018-06-21T07:02:25.551Z,4.10
2018-06-21T07:04:54.025Z,6.87
2018-06-21T07:07:22.532Z,5.13
2018-06-21T07:09:51.368Z,7.43
2018-06-21T07:12:20.138Z,5.50
2018-06-21T07:14:48.611Z,5.37
2018-06-21T07:17:17.079Z,6.07
2018-06-21T07:19:45.573Z,3.83
2018-06-21T07:22:14.103Z,7.23
2018-06-21T07:24:42.629Z,6.60
2018-06-21T07:27:11.332Z,5.47
2018-06-21T07:29:40.127Z,4.57
2018-06-21T07:32:08.866Z,6.40
2018-06-21T07:34:37.644Z,4.70
2018-06-21T07:37:06.069Z,4.33
2018-06-21T07:39:34.840Z,6.97
2018-06-21T07:42:03.271Z,5.40
2018-06-21T07:44:31.907Z,6.47
2018-06-21T07:47:00.192Z,5.17
2018-06-21T07:49:29.165Z,6.77
2018-06-21T07:51:58.006Z,7.27
2018-06-21T07:54:26.954Z,3.93
2018-06-21T07:56:55.753Z,6.30
2018-06-21T07:59:24.225Z,5.63
2018-06-21T08:01:52.411Z,4.50
2018-06-21T08:04:20.932Z,4.07
2018-06-21T08:06:49.461Z,2.57
2018-06-21T08:09:17.895Z,5.73
2018-06-21T08:11:46.382Z,4.13
2018-06-21T08:14:14.839Z,5.20
2018-06-21T08:16:44.711Z,5.17
2018-06-21T08:19:13.905Z,4.30
2018-06-21T08:21:42.324Z,4.50
2018-06-21T08:24:10.957Z,4.20
2018-06-21T08:26:39.519Z,3.07
2018-06-21T08:29:08.309Z,3.77
2018-06-21T08:31:36.776Z,5.17
2018-06-21T08:34:05.461Z,5.00
2018-06-21T08:36:34.083Z,4.07
2018-06-21T08:39:02.332Z,3.47
2018-06-21T08:41:33.521Z,6.83
2018-06-21T08:44:02.019Z,4.03
2018-06-21T08:46:30.818Z,4.00
2018-06-21T08:48:59.711Z,7.20
2018-06-21T08:51:28.469Z,5.97
2018-06-21T08:53:56.916Z,5.87
2018-06-21T08:56:25.443Z,5.17
2018-06-21T08:58:53.965Z,4.67
2018-06-21T09:01:22.441Z,2.70
2018-06-21T09:03:50.983Z,1.40
2018-06-21T09:06:19.665Z,1.00
2018-06-21T09:08:48.105Z,3.40
2018-06-21T09:11:16.524Z,2.30
2018-06-21T09:13:44.676Z,3.07
2018-06-21T09:16:12.815Z,5.13
2018-06-21T09:18:41.473Z,5.00
2018-06-21T09:21:09.993Z,1.67
2018-06-21T09:23:38.767Z,4.23
2018-06-21T09:26:07.331Z,2.47
2018-06-21T09:28:36.059Z,4.53
2018-06-21T09:31:04.504Z,4.60
2018-06-21T09:33:33.007Z,4.17
2018-06-21T09:36:01.454Z,4.27
2018-06-21T09:38:35.482Z,4.50
2018-06-21T09:41:09.387Z,7.00
2018-06-21T09:43:50.291Z,4.77
2018-06-21T09:46:16.877Z,4.07
2018-06-21T09:48:52.052Z,5.67
2018-06-21T09:51:20.740Z,4.47
2018-06-21T09:53:49.373Z,6.67
2018-06-21T09:56:18.183Z,7.30
2018-06-21T09:58:46.619Z,6.30
2018-06-21T10:01:15.345Z,10.73
2018-06-21T10:03:43.823Z,8.00
2018-06-21T10:06:12.595Z,7.90
2018-06-21T10:08:41.397Z,16.27
2018-06-21T10:11:10.371Z,8.50
2018-06-21T10:13:38.957Z,6.43
2018-06-21T10:16:07.428Z,6.67
2018-06-21T10:18:36.351Z,3.73
2018-06-21T10:21:04.837Z,4.97
2018-06-21T10:23:33.276Z,6.37
2018-06-21T10:26:01.715Z,3.10
2018-06-21T10:28:30.149Z,4.23
2018-06-21T10:30:58.620Z,6.97
2018-06-21T10:33:27.085Z,4.37
2018-06-21T10:35:55.562Z,5.97
2018-06-21T10:38:24.005Z,2.17
2018-06-21T10:40:52.444Z,5.67
2018-06-21T10:43:21.215Z,4.80
2018-06-21T10:45:49.637Z,3.90
2018-06-21T10:48:18.479Z,4.77
2018-06-21T10:50:47.291Z,4.63
2018-06-21T10:53:16.068Z,2.27
2018-06-21T10:55:44.822Z,7.80
2018-06-21T10:58:13.647Z,6.43
2018-06-21T11:00:42.165Z,8.80
2018-06-21T11:03:10.977Z,3.57
2018-06-21T11:05:39.713Z,11.73
2018-06-21T11:08:08.525Z,1.50
2018-06-21T11:10:37.817Z,2.93
2018-06-21T11:13:06.453Z,4.13
2018-06-21T11:15:34.952Z,5.57
2018-06-21T11:18:03.698Z,3.27
2018-06-21T11:20:32.145Z,3.40
2018-06-21T11:23:01.161Z,4.13
2018-06-21T11:25:29.634Z,3.67
2018-06-21T11:27:58.160Z,2.90
2018-06-21T11:30:26.930Z,4.50
2018-06-21T11:32:55.361Z,4.83
2018-06-21T11:35:23.843Z,2.23
2018-06-21T11:37:52.662Z,9.57
2018-06-21T11:40:21.140Z,0.73
2018-06-21T11:42:49.927Z,2.73
2018-06-21T11:45:18.893Z,3.90
2018-06-21T11:47:47.589Z,2.80
2018-06-21T11:50:16.477Z,2.33
2018-06-21T11:52:44.940Z,1.67
2018-06-21T11:55:13.697Z,2.63
2018-06-21T11:57:42.153Z,2.70
2018-06-21T12:00:10.932Z,4.67
2018-06-21T12:02:39.493Z,5.57
2018-06-21T12:05:08.259Z,4.70
2018-06-21T12:07:36.951Z,3.13
2018-06-21T12:10:05.459Z,2.47
2018-06-21T12:12:33.995Z,3.10
2018-06-21T12:15:02.481Z,2.67
2018-06-21T12:17:30.971Z,3.70
2018-06-21T12:19:59.743Z,3.60
2018-06-21T12:22:28.185Z,2.20
2018-06-21T12:24:56.671Z,3.03
2018-06-21T12:27:25.220Z,3.77
2018-06-21T12:29:53.682Z,4.73
2018-06-21T12:32:22.131Z,1.97
2018-06-21T12:34:50.637Z,7.10
2018-06-21T12:37:19.117Z,3.93
2018-06-21T12:39:47.869Z,1.97
2018-06-21T12:42:16.821Z,3.77
2018-06-21T12:44:45.476Z,2.87
2018-06-21T12:47:13.943Z,3.03
2018-06-21T12:49:42.685Z,1.63
2018-06-21T12:52:11.325Z,3.33
2018-06-21T12:54:40.076Z,2.77
2018-06-21T12:57:08.521Z,2.77
2018-06-21T12:59:37.025Z,3.07
2018-06-21T13:02:05.903Z,3.53
2018-06-21T13:04:35.077Z,3.47
2018-06-21T13:07:03.747Z,7.90
2018-06-21T13:09:37.570Z,5.67
2018-06-21T13:12:31.615Z,1.87
2018-06-21T13:15:00.053Z,4.30
2018-06-21T13:17:29.453Z,2.20
2018-06-21T13:19:59.097Z,3.07
2018-06-21T13:22:28.149Z,2.67
2018-06-21T13:24:56.680Z,4.10
2018-06-21T13:27:25.638Z,2.70
2018-06-21T13:29:54.229Z,2.53
2018-06-21T13:32:22.773Z,4.87
2018-06-21T13:34:51.904Z,4.30
2018-06-21T13:37:20.792Z,4.83
2018-06-21T13:39:49.918Z,1.97
2018-06-21T13:42:19.028Z,3.60
2018-06-21T13:44:47.504Z,3.47
2018-06-21T13:47:16.753Z,2.80
2018-06-21T13:49:45.236Z,2.13
2018-06-21T13:52:13.717Z,1.10
2018-06-21T13:54:42.297Z,2.00
2018-06-21T13:57:10.680Z,3.40
2018-06-21T13:59:39.502Z,1.47
2018-06-21T14:02:08.224Z,1.23
2018-06-21T14:04:36.836Z,2.17
2018-06-21T14:07:05.315Z,2.90
2018-06-21T14:09:34.133Z,0.83
2018-06-21T14:12:03.086Z,1.50
2018-06-21T14:14:31.867Z,1.67
2018-06-21T14:17:00.385Z,2.73
2018-06-21T14:19:28.806Z,1.57
2018-06-21T14:21:57.245Z,0.80
2018-06-21T14:24:26.103Z,4.23
2018-06-21T14:26:54.561Z,1.23
2018-06-21T14:29:23.473Z,1.17
2018-06-21T14:31:52.209Z,2.73
2018-06-21T14:34:20.730Z,2.53
2018-06-21T14:36:49.498Z,4.20
2018-06-21T14:39:18.233Z,2.73
2018-06-21T14:41:46.662Z,2.20
2018-06-21T14:44:15.205Z,2.13
2018-06-21T14:46:43.665Z,2.93
2018-06-21T14:49:12.225Z,1.90
2018-06-21T14:51:40.993Z,2.63
2018-06-21T14:54:09.332Z,4.63
2018-06-21T14:56:37.825Z,3.73
2018-06-21T14:59:06.782Z,3.23
2018-06-21T15:01:35.251Z,3.33
2018-06-21T15:04:04.325Z,3.50
2018-06-21T15:06:33.154Z,4.63
2018-06-21T15:09:02.114Z,3.73
2018-06-21T15:11:30.615Z,4.83
2018-06-21T15:13:59.137Z,2.10
2018-06-21T15:16:27.593Z,2.30
2018-06-21T15:18:56.278Z,3.67
2018-06-21T15:21:24.787Z,3.20
2018-06-21T15:23:53.287Z,4.40
2018-06-21T15:26:21.779Z,2.03
2018-06-21T15:28:50.271Z,1.83
2018-06-21T15:31:18.857Z,4.47
2018-06-21T15:33:53.804Z,2.33
2018-06-21T15:36:22.673Z,2.93
2018-06-21T15:38:51.563Z,2.33
2018-06-21T15:41:20.054Z,2.43
2018-06-21T15:43:48.535Z,1.87
2018-06-21T15:46:17.475Z,3.97
2018-06-21T15:48:45.920Z,1.77
2018-06-21T15:51:14.365Z,3.40
2018-06-21T15:53:43.180Z,2.63
2018-06-21T15:56:11.635Z,2.53
2018-06-21T15:58:40.117Z,1.93
2018-06-21T16:01:08.601Z,3.40
2018-06-21T16:03:37.339Z,4.60
2018-06-21T16:06:05.879Z,13.00
2018-06-21T16:08:34.395Z,3.73
2018-06-21T16:11:02.851Z,2.97
2018-06-21T16:13:31.490Z,2.10
2018-06-21T16:15:59.948Z,2.23
2018-06-21T16:18:28.397Z,0.97
2018-06-21T16:20:57.159Z,4.07
2018-06-21T16:23:25.910Z,4.93
2018-06-21T16:25:54.360Z,4.17
2018-06-21T16:28:22.969Z,8.00
2018-06-21T16:30:51.364Z,3.03
2018-06-21T16:33:19.786Z,4.27
2018-06-21T16:35:48.601Z,2.40
2018-06-21T16:38:17.164Z,6.30
2018-06-21T16:40:45.674Z,3.33
2018-06-21T16:43:14.093Z,1.97
2018-06-21T16:45:42.869Z,7.13
2018-06-21T16:48:11.408Z,3.20
2018-06-21T16:50:39.946Z,4.10
2018-06-21T16:53:08.435Z,3.63
2018-06-21T16:55:37.092Z,4.87
2018-06-21T16:58:05.614Z,3.83
2018-06-21T17:00:34.089Z,4.80
2018-06-21T17:03:03.130Z,3.70
2018-06-21T17:05:31.654Z,5.60
2018-06-21T17:08:00.195Z,5.27
2018-06-21T17:10:28.734Z,5.90
2018-06-21T17:12:59.047Z,5.20
2018-06-21T17:15:27.936Z,5.07
2018-06-21T17:17:56.672Z,2.80
2018-06-21T17:20:25.213Z,3.73
2018-06-21T17:22:53.982Z,2.20
2018-06-21T17:25:22.490Z,6.43
2018-06-21T17:27:50.982Z,6.43
2018-06-21T17:30:19.770Z,1.73
2018-06-21T17:32:48.567Z,4.23
2018-06-21T17:35:17.061Z,2.17
2018-06-21T17:37:45.658Z,5.00
2018-06-21T17:40:14.130Z,2.47
2018-06-21T17:42:42.582Z,4.60
2018-06-21T17:45:11.296Z,4.00
2018-06-21T17:47:40.049Z,3.90
2018-06-21T17:50:08.864Z,5.30
2018-06-21T17:52:37.304Z,3.13
2018-06-21T17:55:06.078Z,4.70
2018-06-21T17:57:34.589Z,6.17
2018-06-21T18:00:03.269Z,4.37
2018-06-21T18:02:31.944Z,4.70
2018-06-21T18:05:00.348Z,7.37
2018-06-21T18:07:28.799Z,5.60
2018-06-21T18:09:57.291Z,4.57
2018-06-21T18:12:26.049Z,7.27
2018-06-21T18:14:54.799Z,6.77
2018-06-21T18:17:23.310Z,8.67
2018-06-21T18:19:51.525Z,6.60
2018-06-21T18:22:20.588Z,5.77
2018-06-21T18:24:49.101Z,6.27
2018-06-21T18:27:17.581Z,3.97
2018-06-21T18:29:46.283Z,3.77
2018-06-21T18:32:15.483Z,7.77
2018-06-21T18:34:44.367Z,6.13
2018-06-21T18:37:13.152Z,9.93
2018-06-21T18:39:41.749Z,9.57
2018-06-21T18:42:10.503Z,4.13
2018-06-21T18:44:39.317Z,6.00
2018-06-21T18:47:08.640Z,7.30
2018-06-21T18:49:37.378Z,6.33
2018-06-21T18:52:06.250Z,6.43
2018-06-21T18:54:34.972Z,5.10
2018-06-21T18:57:04.115Z,6.83
2018-06-21T18:59:33.460Z,5.43
2018-06-21T19:02:02.742Z,5.70
2018-06-21T19:04:31.359Z,6.10
2018-06-21T19:07:07.342Z,5.60
2018-06-21T19:09:42.792Z,8.67
2018-06-21T19:12:15.354Z,5.70
2018-06-21T19:14:46.892Z,6.37
2018-06-21T19:17:15.683Z,6.50
2018-06-21T19:19:44.126Z,7.10
2018-06-21T19:22:12.994Z,8.07
2018-06-21T19:24:42.045Z,4.17
2018-06-21T19:27:10.746Z,8.70
2018-06-21T19:29:39.181Z,6.00
2018-06-21T19:32:07.648Z,7.70
2018-06-21T19:34:36.405Z,8.10
2018-06-21T19:37:05.168Z,10.93
2018-06-21T19:39:34.035Z,8.70
2018-06-21T19:42:02.993Z,10.33
2018-06-21T19:44:31.330Z,8.30
2018-06-21T19:46:59.887Z,8.10
2018-06-21T19:49:28.469Z,8.00
2018-06-21T19:51:57.056Z,6.30
2018-06-21T19:54:25.875Z,10.83
2018-06-21T19:56:54.733Z,7.27
2018-06-21T19:59:23.273Z,11.33
2018-06-21T20:01:51.842Z,8.30
2018-06-21T20:04:20.273Z,6.83
2018-06-21T20:06:49.191Z,7.00
2018-06-21T20:09:17.838Z,6.80
2018-06-21T20:11:46.831Z,8.43
2018-06-21T20:14:16.523Z,10.87
2018-06-21T20:16:45.178Z,10.00
2018-06-21T20:19:15.614Z,9.03
2018-06-21T20:21:44.228Z,8.73
2018-06-21T20:24:13.010Z,10.23
2018-06-21T20:26:41.570Z,13.83
2018-06-21T20:29:15.320Z,7.03
2018-06-21T20:31:43.809Z,8.73
2018-06-21T20:34:12.344Z,7.83
2018-06-21T20:36:40.615Z,7.87
2018-06-21T20:39:10.308Z,6.70
2018-06-21T20:41:38.877Z,10.40
2018-06-21T20:44:07.325Z,7.77
2018-06-21T20:46:36.015Z,7.50
2018-06-21T20:49:04.515Z,7.10
2018-06-21T20:51:32.973Z,9.07
2018-06-21T20:54:01.774Z,9.63
2018-06-21T20:56:30.268Z,9.97
2018-06-21T20:58:58.738Z,6.57
2018-06-21T21:01:28.026Z,8.20
2018-06-21T21:03:56.785Z,8.90
2018-06-21T21:06:25.587Z,10.03
2018-06-21T21:08:54.066Z,8.37
2018-06-21T21:11:22.896Z,7.13
2018-06-21T21:13:51.407Z,10.30
2018-06-21T21:16:19.846Z,6.70
2018-06-21T21:18:48.641Z,2.90
2018-06-21T21:21:17.072Z,5.60
2018-06-21T21:23:45.864Z,3.57
2018-06-21T21:26:14.344Z,8.43
2018-06-21T21:28:43.123Z,6.20
2018-06-21T21:31:11.613Z,5.57
2018-06-21T21:33:40.472Z,7.77
2018-06-21T21:36:09.014Z,4.57
2018-06-21T21:38:37.840Z,3.53
2018-06-21T21:41:06.508Z,4.93
2018-06-21T21:43:34.960Z,6.13
2018-06-21T21:46:03.891Z,5.70
2018-06-21T21:48:32.719Z,5.50
2018-06-21T21:51:01.197Z,6.50
2018-06-21T21:53:30.204Z,4.53
2018-06-21T21:55:58.609Z,3.70
2018-06-21T21:58:27.136Z,3.77
2018-06-21T22:00:55.993Z,2.80
2018-06-21T22:03:24.538Z,4.40
2018-06-21T22:05:52.962Z,5.00
2018-06-21T22:08:21.386Z,5.83
2018-06-21T22:10:50.089Z,4.07
2018-06-21T22:13:19.030Z,3.47
2018-06-21T22:15:47.706Z,5.37
2018-06-21T22:18:16.146Z,4.37
2018-06-21T22:20:44.918Z,4.60
2018-06-21T22:23:13.289Z,4.60
2018-06-21T22:25:42.078Z,4.20
2018-06-21T22:28:11.014Z,5.80
2018-06-21T22:30:39.537Z,5.90
2018-06-21T22:33:08.086Z,4.87
2018-06-21T22:35:36.553Z,5.13
2018-06-21T22:38:05.396Z,6.57
2018-06-21T22:40:33.938Z,6.23
2018-06-21T22:43:02.517Z,5.80
2018-06-21T22:45:30.930Z,5.93
2018-06-21T22:47:59.419Z,6.77
2018-06-21T22:50:27.845Z,2.70
2018-06-21T22:52:56.408Z,4.93
2018-06-21T22:55:25.027Z,7.73
2018-06-21T22:57:53.550Z,3.27
2018-06-21T23:00:22.384Z,3.77
2018-06-21T23:02:51.158Z,4.33
2018-06-21T23:05:20.253Z,4.80
2018-06-21T23:07:49.097Z,4.97
2018-06-21T23:10:17.580Z,5.57
2018-06-21T23:12:45.996Z,2.80
2018-06-21T23:15:14.755Z,4.70
2018-06-21T23:17:43.170Z,3.27
2018-06-21T23:20:11.918Z,5.73
2018-06-21T23:22:40.340Z,3.23
2018-06-21T23:25:08.777Z,4.00
2018-06-21T23:27:37.417Z,6.87
2018-06-21T23:30:06.119Z,4.27
2018-06-21T23:32:34.536Z,7.13
2018-06-21T23:35:03.353Z,3.63
2018-06-21T23:37:32.235Z,2.63
2018-06-21T23:40:00.799Z,5.83
2018-06-21T23:42:29.206Z,5.37
2018-06-21T23:44:57.654Z,2.83
2018-06-21T23:47:26.331Z,5.50
2018-06-21T23:49:54.655Z,5.53
2018-06-21T23:52:23.108Z,6.17
2018-06-21T23:54:51.834Z,6.67
2018-06-21T23:57:21.012Z,5.27
2018-06-21T23:59:49.536Z,5.50
